Adak, AK

1:34 PM HST on February 24, 2017 (GMT -1000)
Eareckson Air Station

Weather History for PASY - November, 2012

Change the Weather History Date:

Saturday, November 10, 2012

  Actual Average Record
Temperature  
Mean Temperature 34 °F -  
Max Temperature 37 °F 40 °F 47 °F (1949)
Min Temperature 30 °F 34 °F 26 °F (1950)
Degree Days  
Heating Degree Days 32    
Moisture  
Dew Point 32 °F    
Average Humidity 89    
Maximum Humidity 100    
Minimum Humidity 62    
Precipitation  
Precipitation 0.00 in - - ()
Sea Level Pressure  
Sea Level Pressure 29.81 in    
Wind  
Wind Speed 15 mph (NW)    
Max Wind Speed 23 mph    
Max Gust Speed 21 mph    
Visibility 8 miles    
Events Rain , Snow    
Averages and records for this station are not official NWS values.
T = Trace of Precipitation, MM = Missing Value Source: NWS Daily Summary

Daily Weather History Graph

Daily Weather History Graph

Search for Another Location

Airport or City:

Trip Planner

Search our weather history database for the weather conditions in past years. The results will help you decide how hot, cold, wet, or windy it might be!

Date:

Astronomy

Nov. 09, 2012 Rise Set
Actual Time 9:36 AM HST 6:37 PM HST
Civil Twilight 8:59 AM HST 7:14 PM HST
Nautical Twilight 8:17 AM HST 7:56 PM HST
Astronomical Twilight 7:37 AM HST 8:36 PM HST
Moon 5:37 AM HST (11/10) 4:52 PM HST (11/10)
Length of Visible Light 10h 15m
Length of Day
9h 00m
Waning Crescent, 13% of the Moon is Illuminated
Nov 10
Waning Crescent
Nov 13
New
Nov 20
First Quarter
Nov 28
Full
Dec 6
Last Quarter

Hourly Weather History & Observations

Time (HST) Temp. Windchill Dew Point Humidity Pressure Visibility Wind Dir Wind Speed Gust Speed Precip Events Conditions
12:52 AM 35.6 °F 26.6 °F 32.0 °F 87% 29.84 in 10.0 mi NNE 13.8 mph - N/A   Overcast
12:56 AM 34.0 °F 24.6 °F 32.0 °F 92% 29.84 in 9.0 mi North 13.8 mph - N/A Snow Light Snow
1:04 AM 35.6 °F 27.1 °F 32.0 °F 87% 29.84 in 6.2 mi North 12.7 mph - N/A Snow Light Snow
1:19 AM 33.8 °F 24.3 °F 30.2 °F 87% 29.83 in 2.5 mi North 13.8 mph - N/A Snow Light Snow
1:30 AM 33.8 °F 24.3 °F 30.2 °F 87% 29.83 in 2.5 mi North 13.8 mph - N/A Snow Light Snow
1:33 AM 33.8 °F 24.8 °F 32.0 °F 93% 29.83 in - North 12.7 mph - N/A Snow Light Snow
1:56 AM 34.0 °F 24.2 °F 32.0 °F 92% 29.83 in 5.0 mi North 15.0 mph - N/A Snow Light Snow
2:07 AM 33.8 °F 23.9 °F 32.0 °F 93% 29.82 in 6.2 mi North 15.0 mph - N/A Snow Light Snow
2:20 AM 33.8 °F 24.8 °F 33.8 °F 100% 29.82 in 6.2 mi North 12.7 mph - N/A Snow Light Snow
2:56 AM 34.0 °F 22.7 °F 32.0 °F 92% 29.81 in 5.0 mi North 19.6 mph - N/A Snow Light Snow
3:34 AM 33.8 °F 23.2 °F 32.0 °F 93% 29.80 in 6.2 mi North 17.3 mph - N/A Snow Light Snow
3:56 AM 34.0 °F 23.8 °F 33.1 °F 96% 29.79 in 9.0 mi North 16.1 mph - N/A Snow Light Snow
4:56 AM 34.0 °F 23.4 °F 33.1 °F 96% 29.78 in 9.0 mi North 17.3 mph - N/A Snow Light Snow
5:56 AM 34.0 °F 22.7 °F 33.1 °F 96% 29.76 in 9.0 mi North 19.6 mph - N/A Snow Light Snow
6:08 AM 33.8 °F 23.5 °F 33.8 °F 100% 29.76 in 6.2 mi North 16.1 mph - N/A Snow Light Snow
6:44 AM 35.6 °F 26.2 °F 33.8 °F 93% 29.76 in 6.2 mi North 15.0 mph - N/A Rain Light Rain
6:56 AM 35.1 °F 25.9 °F 34.0 °F 96% 29.76 in 9.0 mi North 13.8 mph - N/A Snow Light Snow
7:35 AM 35.6 °F 27.5 °F 33.8 °F 93% 29.76 in 10.0 mi North 11.5 mph - N/A Rain Light Rain
7:44 AM 35.6 °F 27.1 °F 33.8 °F 93% 29.76 in 10.0 mi North 12.7 mph - N/A Rain Light Rain
7:56 AM 35.1 °F 25.9 °F 34.0 °F 96% 29.76 in 10.0 mi North 13.8 mph - N/A Rain Light Rain
8:56 AM 35.1 °F 25.9 °F 34.0 °F 96% 29.76 in 10.0 mi NNW 13.8 mph - N/A Rain Light Rain
9:56 AM 35.1 °F 23.8 °F 33.1 °F 92% 29.78 in 8.0 mi NNW 20.7 mph - N/A Snow Light Snow
10:03 AM 35.6 °F 24.5 °F 33.8 °F 93% 29.77 in 6.2 mi NW 20.7 mph - N/A Snow Light Snow
10:12 AM 35.6 °F 25.2 °F 33.8 °F 93% 29.77 in 6.2 mi NW 18.4 mph - N/A Snow Light Snow
10:27 AM 33.8 °F 23.2 °F 33.8 °F 100% 29.78 in 6.2 mi NW 17.3 mph - N/A Snow Light Snow
10:56 AM 35.1 °F 24.8 °F 32.0 °F 89% 29.78 in 10.0 mi NW 17.3 mph - N/A   Overcast
10:59 AM 35.6 °F 25.9 °F 32.0 °F 87% 29.78 in 10.0 mi NW 16.1 mph - N/A   Overcast
11:39 AM 35.6 °F 25.9 °F 33.8 °F 93% 29.79 in 10.0 mi NW 16.1 mph - N/A   Overcast
11:56 AM 36.0 °F 27.5 °F 34.0 °F 93% 29.79 in 10.0 mi NW 12.7 mph - N/A Rain Light Rain
12:19 PM 37.4 °F 28.5 °F 33.8 °F 87% 29.79 in 10.0 mi NW 15.0 mph - N/A   Overcast
12:39 PM 37.4 °F 28.5 °F 33.8 °F 87% 29.79 in 10.0 mi NW 15.0 mph - N/A   Mostly Cloudy
12:56 PM 37.0 °F 28.5 °F 34.0 °F 89% 29.80 in 10.0 mi WNW 13.8 mph - N/A   Overcast
1:20 PM 35.6 °F 24.5 °F 33.8 °F 93% 29.80 in 6.2 mi WNW 20.7 mph - N/A Snow Light Snow
1:29 PM 33.8 °F 22.5 °F 33.8 °F 100% 29.80 in 4.0 mi WNW 19.6 mph - N/A Snow Light Snow
1:42 PM 35.6 °F 24.8 °F 33.8 °F 93% 29.79 in 6.2 mi WNW 19.6 mph - N/A   Overcast
1:49 PM 35.6 °F 24.8 °F 33.8 °F 93% 29.79 in 10.0 mi WNW 19.6 mph - N/A   Overcast
1:53 PM 35.6 °F 24.5 °F 33.8 °F 93% 29.79 in 10.0 mi WNW 20.7 mph - N/A   Overcast
1:56 PM 36.0 °F 25.0 °F 33.1 °F 89% 29.80 in 10.0 mi WNW 20.7 mph - N/A   Overcast
2:16 PM 35.6 °F 24.2 °F 33.8 °F 93% 29.79 in 6.2 mi WNW 21.9 mph - N/A   Overcast
2:23 PM 35.6 °F 24.0 °F 33.8 °F 93% 29.79 in 10.0 mi WNW 23.0 mph - N/A   Overcast
2:56 PM 36.0 °F 25.0 °F 33.1 °F 89% 29.81 in 9.0 mi WNW 20.7 mph - N/A   Overcast
3:23 PM 35.6 °F 24.8 °F 33.8 °F 93% 29.80 in 10.0 mi NW 19.6 mph - N/A   Overcast
3:56 PM 37.0 °F 27.7 °F 30.9 °F 79% 29.81 in 10.0 mi WNW 16.1 mph - N/A   Overcast
4:09 PM 37.4 °F 27.2 °F 32.0 °F 81% 29.81 in 10.0 mi WNW 19.6 mph - N/A   Mostly Cloudy
4:16 PM 37.4 °F 27.8 °F 32.0 °F 81% 29.81 in 10.0 mi West 17.3 mph - N/A   Mostly Cloudy
4:56 PM 37.0 °F 28.1 °F 30.9 °F 79% 29.82 in 10.0 mi WNW 15.0 mph - N/A   Scattered Clouds
5:05 PM 35.6 °F 26.6 °F 28.4 °F 75% 29.82 in 10.0 mi WNW 13.8 mph - N/A   Mostly Cloudy
5:17 PM 37.4 °F 28.9 °F 28.4 °F 70% 29.82 in 10.0 mi WNW 13.8 mph - N/A   Scattered Clouds
5:56 PM 35.1 °F 25.9 °F 28.0 °F 76% 29.84 in 10.0 mi WNW 13.8 mph - N/A   Partly Cloudy
6:56 PM 34.0 °F 27.2 °F 26.1 °F 73% 29.85 in 10.0 mi West 8.1 mph - N/A   Partly Cloudy
7:56 PM 33.1 °F 24.9 °F 25.0 °F 72% 29.86 in 10.0 mi West 10.4 mph - N/A   Partly Cloudy
8:56 PM 30.9 °F 27.5 °F 23.0 °F 72% 29.87 in 10.0 mi NW 3.5 mph - N/A   Clear
9:56 PM 36.0 °F 26.0 °F 28.0 °F 73% 29.87 in 10.0 mi SW 17.3 mph - N/A   Scattered Clouds
10:56 PM 34.0 °F 23.8 °F 28.0 °F 79% 29.89 in 7.0 mi West 16.1 mph - N/A Snow Light Snow
11:05 PM 33.8 °F 24.8 °F 30.2 °F 87% 29.89 in - WSW 12.7 mph - N/A Snow Light Snow
11:08 PM 33.8 °F 26.4 °F 30.2 °F 87% 29.89 in - WSW 9.2 mph - N/A Snow Light Snow
11:11 PM 33.8 °F 23.9 °F 30.2 °F 87% 29.89 in 1.5 mi SSW 15.0 mph - N/A Snow Light Snow
11:20 PM 33.8 °F 27.7 °F 33.8 °F 100% 29.88 in 1.8 mi South 6.9 mph - N/A Snow Light Snow
11:23 PM 33.8 °F 28.6 °F 33.8 °F 100% 29.88 in - South 5.8 mph - N/A Snow Light Snow
11:44 PM 33.8 °F 27.0 °F 32.0 °F 93% 29.88 in 10.0 mi South 8.1 mph - N/A   Scattered Clouds
11:56 PM 35.1 °F 25.2 °F 30.9 °F 85% 29.88 in 10.0 mi SW 16.1 mph 20.7 mph N/A   Partly Cloudy